createdAt,value
2019-02-14T00:02:34.157Z,2.30
2019-02-14T00:05:16.141Z,2.30
2019-02-14T00:07:42.570Z,2.20
2019-02-14T00:10:16.288Z,2.20
2019-02-14T00:12:49.887Z,2.30
2019-02-14T00:15:23.546Z,2.30
2019-02-14T00:17:57.301Z,2.30
2019-02-14T00:20:31.069Z,2.20
2019-02-14T00:23:04.670Z,2.20
2019-02-14T00:25:38.202Z,2.10
2019-02-14T00:28:11.806Z,2.10
2019-02-14T00:30:45.345Z,2.00
2019-02-14T00:33:18.867Z,2.10
2019-02-14T00:35:52.415Z,2.10
2019-02-14T00:38:26.110Z,2.00
2019-02-14T00:40:59.710Z,2.00
2019-02-14T00:43:33.312Z,1.90
2019-02-14T00:46:07.044Z,2.00
2019-02-14T00:48:41.721Z,1.90
2019-02-14T00:51:16.049Z,1.80
2019-02-14T00:53:50.463Z,1.80
2019-02-14T00:56:24.242Z,1.80
2019-02-14T00:58:59.332Z,1.80
2019-02-14T01:01:33.072Z,1.80
2019-02-14T01:04:06.781Z,1.80
2019-02-14T01:06:40.559Z,1.80
2019-02-14T01:09:15.040Z,1.90
2019-02-14T01:11:49.594Z,1.90
2019-02-14T01:14:23.212Z,1.90
2019-02-14T01:16:58.484Z,1.80
2019-02-14T01:19:32.440Z,1.70
2019-02-14T01:22:05.986Z,1.60
2019-02-14T01:24:39.541Z,1.60
2019-02-14T01:27:14.345Z,1.70
2019-02-14T01:29:48.253Z,1.70
2019-02-14T01:32:23.009Z,1.70
2019-02-14T01:34:56.942Z,1.60
2019-02-14T01:37:30.704Z,1.60
2019-02-14T01:40:04.366Z,1.60
2019-02-14T01:42:38.639Z,1.60
2019-02-14T01:45:13.014Z,1.60
2019-02-14T01:47:47.325Z,1.60
2019-02-14T01:50:21.190Z,1.60
2019-02-14T01:52:56.840Z,1.50
2019-02-14T01:55:32.495Z,1.50
2019-02-14T01:58:04.153Z,1.50
2019-02-14T02:00:37.893Z,1.50
2019-02-14T02:03:11.607Z,1.50
2019-02-14T02:05:50.894Z,1.50
2019-02-14T02:08:19.893Z,1.40
2019-02-14T02:10:53.724Z,1.40
2019-02-14T02:13:27.434Z,1.50
2019-02-14T02:16:01.133Z,1.50
2019-02-14T02:18:34.803Z,1.50
2019-02-14T02:21:08.501Z,1.40
2019-02-14T02:23:42.053Z,1.40
2019-02-14T02:26:15.609Z,1.40
2019-02-14T02:28:49.110Z,1.40
2019-02-14T02:31:23.531Z,1.50
2019-02-14T02:33:57.101Z,1.50
2019-02-14T02:36:30.694Z,1.50
2019-02-14T02:39:04.288Z,1.50
2019-02-14T02:41:37.995Z,1.40
2019-02-14T02:44:11.586Z,1.30
2019-02-14T02:46:45.192Z,1.30
2019-02-14T02:49:18.803Z,1.30
2019-02-14T02:51:52.410Z,1.40
2019-02-14T02:54:26.019Z,1.40
2019-02-14T02:56:59.852Z,1.50
2019-02-14T02:59:33.433Z,1.50
2019-02-14T03:02:07.086Z,1.40
2019-02-14T03:04:41.634Z,1.50
2019-02-14T03:07:15.280Z,1.40
2019-02-14T03:09:49.043Z,1.50
2019-02-14T03:12:23.457Z,1.30
2019-02-14T03:14:56.990Z,1.20
2019-02-14T03:17:30.727Z,1.20
2019-02-14T03:20:06.480Z,1.10
2019-02-14T03:22:40.136Z,1.10
2019-02-14T03:25:16.251Z,1.10
2019-02-14T03:27:50.587Z,1.10
2019-02-14T03:30:24.219Z,1.10
2019-02-14T03:32:57.843Z,1.20
2019-02-14T03:35:31.543Z,1.20
2019-02-14T03:38:05.079Z,1.20
2019-02-14T03:40:38.856Z,1.20
2019-02-14T03:43:13.432Z,1.20
2019-02-14T03:45:47.122Z,1.20
2019-02-14T03:48:20.890Z,1.20
2019-02-14T03:50:54.661Z,1.20
2019-02-14T03:53:28.267Z,1.20
2019-02-14T03:56:02.085Z,1.20
2019-02-14T03:58:35.810Z,1.10
2019-02-14T04:01:10.381Z,1.20
2019-02-14T04:03:44.182Z,1.10
2019-02-14T04:06:27.272Z,1.10
2019-02-14T04:08:54.208Z,1.10
2019-02-14T04:11:28.163Z,1.10
2019-02-14T04:14:01.907Z,1.10
2019-02-14T04:16:35.529Z,1.00
2019-02-14T04:19:09.262Z,1.00
2019-02-14T04:21:42.802Z,0.90
2019-02-14T04:24:17.194Z,0.90
2019-02-14T04:26:50.826Z,0.90
2019-02-14T04:29:25.412Z,0.90
2019-02-14T04:31:59.170Z,0.90
2019-02-14T04:34:32.716Z,0.90
2019-02-14T04:37:06.297Z,1.00
2019-02-14T04:39:40.101Z,1.00
2019-02-14T04:42:15.105Z,1.00
2019-02-14T04:44:47.442Z,1.00
2019-02-14T04:47:21.234Z,0.90
2019-02-14T04:49:54.910Z,0.90
2019-02-14T04:52:28.596Z,0.90
2019-02-14T04:55:02.337Z,0.90
2019-02-14T04:57:36.166Z,0.90
2019-02-14T05:00:13.537Z,0.90
2019-02-14T05:02:47.396Z,0.80
2019-02-14T05:05:21.908Z,0.90
2019-02-14T05:07:55.710Z,0.90
2019-02-14T05:10:29.411Z,0.90
2019-02-14T05:13:03.299Z,0.90
2019-02-14T05:15:37.076Z,0.90
2019-02-14T05:18:10.832Z,0.80
2019-02-14T05:20:44.518Z,0.80
2019-02-14T05:23:18.204Z,0.90
2019-02-14T05:25:51.845Z,0.90
2019-02-14T05:28:25.551Z,1.00
2019-02-14T05:30:59.352Z,1.00
2019-02-14T05:33:33.014Z,0.90
2019-02-14T05:36:06.780Z,0.90
2019-02-14T05:38:40.520Z,0.80
2019-02-14T05:41:14.053Z,0.80
2019-02-14T05:43:48.388Z,0.80
2019-02-14T05:46:22.196Z,0.80
2019-02-14T05:48:56.658Z,0.90
2019-02-14T05:51:30.291Z,0.90
2019-02-14T05:54:03.865Z,0.90
2019-02-14T05:56:37.669Z,0.80
2019-02-14T05:59:11.422Z,0.80
2019-02-14T06:01:45.301Z,0.70
2019-02-14T06:04:19.000Z,0.70
2019-02-14T06:07:00.626Z,0.70
2019-02-14T06:09:26.339Z,0.60
2019-02-14T06:12:00.248Z,0.60
2019-02-14T06:14:33.862Z,0.70
2019-02-14T06:17:07.616Z,0.70
2019-02-14T06:19:41.448Z,0.70
2019-02-14T06:22:15.322Z,0.70
2019-02-14T06:24:50.254Z,0.70
2019-02-14T06:27:24.038Z,0.60
2019-02-14T06:29:57.616Z,0.60
2019-02-14T06:32:31.424Z,0.60
2019-02-14T06:35:05.850Z,0.60
2019-02-14T06:37:39.363Z,0.60
2019-02-14T06:40:13.922Z,0.80
2019-02-14T06:42:47.711Z,0.80
2019-02-14T06:45:21.329Z,0.90
2019-02-14T06:47:55.097Z,0.90
2019-02-14T06:50:34.631Z,0.90
2019-02-14T06:53:02.761Z,0.80
2019-02-14T06:55:36.507Z,0.90
2019-02-14T06:58:12.748Z,1.00
2019-02-14T07:00:45.412Z,1.00
2019-02-14T07:03:18.992Z,0.90
2019-02-14T07:05:52.720Z,1.00
2019-02-14T07:08:27.207Z,1.10
2019-02-14T07:11:01.160Z,1.10
2019-02-14T07:13:34.952Z,1.20
2019-02-14T07:16:09.730Z,1.10
2019-02-14T07:18:43.919Z,1.00
2019-02-14T07:21:17.579Z,1.00
2019-02-14T07:23:51.375Z,1.00
2019-02-14T07:26:25.118Z,0.90
2019-02-14T07:28:58.695Z,1.00
2019-02-14T07:31:32.425Z,1.00
2019-02-14T07:34:06.297Z,1.10
2019-02-14T07:36:40.876Z,1.40
2019-02-14T07:39:14.603Z,1.40
2019-02-14T07:41:48.156Z,1.50
2019-02-14T07:44:21.964Z,1.50
2019-02-14T07:46:55.624Z,1.60
2019-02-14T07:49:29.262Z,1.70
2019-02-14T07:52:02.887Z,1.80
2019-02-14T07:54:36.577Z,2.20
2019-02-14T07:57:10.405Z,3.00
2019-02-14T07:59:44.165Z,3.80
2019-02-14T08:02:18.769Z,4.90
2019-02-14T08:04:52.518Z,4.90
2019-02-14T08:07:26.245Z,5.70
2019-02-14T08:09:59.858Z,6.70
2019-02-14T08:12:33.410Z,7.20
2019-02-14T08:15:07.986Z,7.80
2019-02-14T08:17:41.722Z,8.10
2019-02-14T08:20:16.256Z,8.60
2019-02-14T08:22:49.875Z,8.70
2019-02-14T08:25:23.478Z,8.20
2019-02-14T08:27:57.202Z,8.60
2019-02-14T08:30:31.019Z,8.70
2019-02-14T08:33:04.778Z,8.10
2019-02-14T08:35:38.357Z,7.80
2019-02-14T08:38:12.150Z,6.80
2019-02-14T08:40:45.949Z,6.60
2019-02-14T08:43:19.727Z,7.00
2019-02-14T08:45:53.506Z,7.10
2019-02-14T08:48:27.175Z,6.80
2019-02-14T08:51:00.791Z,6.40
2019-02-14T08:53:35.271Z,6.30
2019-02-14T08:56:09.127Z,6.30
2019-02-14T08:58:43.699Z,8.10
2019-02-14T09:01:17.401Z,8.10
2019-02-14T09:03:51.030Z,10.00
2019-02-14T09:06:24.820Z,11.90
2019-02-14T09:08:58.692Z,13.50
2019-02-14T09:11:32.344Z,14.40
2019-02-14T09:14:06.123Z,15.30
2019-02-14T09:16:39.818Z,16.00
2019-02-14T09:19:13.477Z,16.70
2019-02-14T09:21:47.110Z,17.10
2019-02-14T09:24:21.419Z,15.80
2019-02-14T09:26:55.212Z,15.80
2019-02-14T09:29:28.881Z,14.70
2019-02-14T09:32:02.571Z,13.70
2019-02-14T09:34:37.171Z,13.10
2019-02-14T09:37:10.774Z,13.00
2019-02-14T09:39:45.200Z,12.20
2019-02-14T09:42:19.014Z,12.20
2019-02-14T09:44:52.806Z,12.00
2019-02-14T09:47:26.587Z,11.60
2019-02-14T09:50:00.290Z,13.10
2019-02-14T09:52:34.127Z,15.20
2019-02-14T09:55:09.864Z,15.60
2019-02-14T09:57:43.581Z,15.30
2019-02-14T10:00:17.519Z,17.20
2019-02-14T10:02:51.987Z,21.20
2019-02-14T10:05:25.638Z,21.20
2019-02-14T10:07:59.382Z,23.00
2019-02-14T10:10:33.083Z,24.30
2019-02-14T10:13:06.934Z,24.80
2019-02-14T10:15:40.682Z,25.10
2019-02-14T10:18:14.455Z,25.30
2019-02-14T10:20:48.156Z,25.60
2019-02-14T10:23:21.849Z,26.40
2019-02-14T10:25:55.481Z,26.90
2019-02-14T10:28:29.105Z,27.60
2019-02-14T10:31:02.855Z,28.40
2019-02-14T10:33:36.443Z,29.00
2019-02-14T10:36:10.080Z,29.30
2019-02-14T10:38:43.661Z,29.70
2019-02-14T10:41:17.561Z,29.10
2019-02-14T10:43:52.073Z,28.00
2019-02-14T10:46:25.904Z,28.00
2019-02-14T10:49:00.314Z,28.80
2019-02-14T10:51:34.892Z,29.40
2019-02-14T10:54:09.376Z,29.90
2019-02-14T10:56:43.795Z,29.80
2019-02-14T10:59:17.418Z,29.80
2019-02-14T11:01:51.968Z,30.30
2019-02-14T11:04:25.836Z,30.30
2019-02-14T11:06:59.624Z,29.60
2019-02-14T11:09:33.427Z,28.80
2019-02-14T11:12:07.148Z,28.60
2019-02-14T11:14:40.755Z,29.20
2019-02-14T11:17:15.091Z,29.90
2019-02-14T11:19:49.507Z,30.20
2019-02-14T11:22:23.158Z,30.20
2019-02-14T11:24:56.757Z,28.50
2019-02-14T11:27:30.358Z,27.20
2019-02-14T11:30:04.959Z,27.10
2019-02-14T11:32:38.675Z,27.30
2019-02-14T11:35:13.039Z,26.60
2019-02-14T11:37:46.792Z,26.60
2019-02-14T11:40:20.555Z,26.40
2019-02-14T11:42:54.824Z,24.90
2019-02-14T11:45:28.650Z,24.90
2019-02-14T11:48:02.329Z,24.60
2019-02-14T11:50:36.709Z,23.60
2019-02-14T11:53:14.084Z,23.20
2019-02-14T11:55:44.808Z,23.50
2019-02-14T11:58:18.463Z,23.40
2019-02-14T12:00:52.221Z,23.30
2019-02-14T12:03:25.888Z,22.00
2019-02-14T12:05:59.614Z,20.40
2019-02-14T12:08:33.398Z,18.50
2019-02-14T12:11:07.167Z,16.70
2019-02-14T12:13:40.803Z,15.10
2019-02-14T12:16:14.610Z,14.30
2019-02-14T12:18:49.053Z,13.20
2019-02-14T12:21:28.959Z,13.20
2019-02-14T12:24:02.744Z,12.90
2019-02-14T12:26:36.455Z,13.00
2019-02-14T12:29:11.031Z,13.10
2019-02-14T12:31:44.633Z,13.10
2019-02-14T12:34:18.391Z,13.00
2019-02-14T12:36:51.930Z,13.00
2019-02-14T12:39:26.480Z,12.90
2019-02-14T12:42:00.218Z,12.90
2019-02-14T12:44:33.926Z,12.90
2019-02-14T12:47:07.514Z,13.10
2019-02-14T12:49:41.380Z,13.10
2019-02-14T12:52:14.918Z,13.20
2019-02-14T12:54:48.567Z,13.30
2019-02-14T12:57:23.175Z,13.20
2019-02-14T12:59:56.909Z,13.10
2019-02-14T13:02:31.449Z,13.30
2019-02-14T13:05:06.518Z,13.40
2019-02-14T13:07:41.000Z,13.40
2019-02-14T13:10:15.485Z,13.40
2019-02-14T13:12:49.099Z,13.40
2019-02-14T13:15:22.717Z,13.40
2019-02-14T13:17:56.917Z,13.30
2019-02-14T13:20:30.493Z,13.40
2019-02-14T13:23:04.112Z,13.50
2019-02-14T13:25:37.660Z,13.60
2019-02-14T13:28:11.372Z,13.70
2019-02-14T13:30:45.100Z,13.80
2019-02-14T13:33:19.695Z,13.90
2019-02-14T13:35:53.375Z,14.00
2019-02-14T13:38:26.935Z,14.10
2019-02-14T13:41:01.287Z,14.00
2019-02-14T13:43:34.981Z,14.00
2019-02-14T13:46:08.641Z,13.90
2019-02-14T13:48:42.813Z,13.80
2019-02-14T13:51:16.407Z,13.80
2019-02-14T13:53:50.036Z,13.70
2019-02-14T13:56:23.874Z,13.60
2019-02-14T13:58:58.337Z,13.40
2019-02-14T14:01:31.995Z,13.40
2019-02-14T14:04:05.581Z,13.30
2019-02-14T14:06:39.324Z,13.20
2019-02-14T14:09:13.671Z,13.00
2019-02-14T14:11:47.398Z,12.90
2019-02-14T14:14:20.984Z,12.90
2019-02-14T14:16:54.724Z,12.80
2019-02-14T14:19:30.435Z,12.70
2019-02-14T14:22:02.243Z,12.70
2019-02-14T14:24:36.585Z,12.60
2019-02-14T14:27:11.055Z,12.50
2019-02-14T14:29:45.600Z,12.40
2019-02-14T14:32:19.351Z,12.40
2019-02-14T14:34:52.959Z,12.40
2019-02-14T14:37:26.741Z,12.30
2019-02-14T14:40:00.350Z,12.30
2019-02-14T14:42:49.793Z,12.20
2019-02-14T14:45:39.097Z,12.20
2019-02-14T14:48:19.176Z,12.20
2019-02-14T14:50:46.581Z,12.10
2019-02-14T14:53:21.006Z,12.20
2019-02-14T14:55:54.687Z,12.20
2019-02-14T14:58:28.352Z,12.20
2019-02-14T15:01:02.020Z,12.20
2019-02-14T15:03:35.756Z,12.20
2019-02-14T15:06:10.466Z,12.30
2019-02-14T15:08:44.196Z,12.30
2019-02-14T15:11:17.966Z,12.40
2019-02-14T15:13:51.789Z,12.40
2019-02-14T15:16:25.416Z,12.30
2019-02-14T15:18:59.083Z,12.30
2019-02-14T15:21:32.702Z,12.30
2019-02-14T15:24:06.385Z,12.30
2019-02-14T15:26:40.108Z,12.20
2019-02-14T15:29:14.641Z,12.10
2019-02-14T15:31:49.074Z,12.00
2019-02-14T15:34:24.096Z,11.90
2019-02-14T15:36:57.966Z,11.90
2019-02-14T15:39:31.577Z,11.80
2019-02-14T15:42:05.915Z,11.60
2019-02-14T15:44:40.435Z,11.60
2019-02-14T15:47:14.993Z,11.50
2019-02-14T15:49:49.390Z,11.50
2019-02-14T15:52:22.472Z,11.30
2019-02-14T15:54:58.144Z,11.20
2019-02-14T15:57:30.088Z,11.00
2019-02-14T16:00:04.747Z,10.80
2019-02-14T16:02:37.479Z,10.70
2019-02-14T16:05:11.795Z,10.50
2019-02-14T16:07:46.227Z,10.30
2019-02-14T16:10:20.620Z,10.20
2019-02-14T16:12:54.433Z,10.10
2019-02-14T16:15:30.857Z,10.00
2019-02-14T16:18:03.295Z,9.90
2019-02-14T16:20:37.473Z,9.90
2019-02-14T16:23:11.083Z,9.80
2019-02-14T16:25:44.864Z,9.70
2019-02-14T16:28:22.420Z,9.60
2019-02-14T16:30:56.863Z,9.50
2019-02-14T16:33:29.820Z,9.30
2019-02-14T16:36:03.350Z,9.30
2019-02-14T16:38:37.716Z,9.00
2019-02-14T16:41:11.409Z,9.00
2019-02-14T16:43:45.199Z,8.90
2019-02-14T16:46:19.690Z,8.70
2019-02-14T16:48:53.357Z,8.60
2019-02-14T16:51:27.087Z,8.60
2019-02-14T16:54:01.472Z,8.50
2019-02-14T16:56:35.102Z,8.50
2019-02-14T16:59:08.675Z,8.40
2019-02-14T17:01:42.240Z,8.30
2019-02-14T17:04:16.011Z,8.30
2019-02-14T17:06:49.672Z,8.20
2019-02-14T17:09:23.527Z,8.20
2019-02-14T17:11:57.270Z,8.10
2019-02-14T17:14:31.626Z,8.00
2019-02-14T17:17:05.238Z,8.00
2019-02-14T17:19:38.896Z,8.00
2019-02-14T17:22:12.574Z,8.00
2019-02-14T17:24:46.295Z,8.00
2019-02-14T17:27:20.824Z,7.80
2019-02-14T17:29:54.354Z,7.80
2019-02-14T17:32:28.179Z,7.70
2019-02-14T17:35:02.591Z,7.60
2019-02-14T17:37:36.305Z,7.50
2019-02-14T17:40:11.176Z,7.50
2019-02-14T17:42:45.825Z,7.40
2019-02-14T17:45:20.163Z,7.30
2019-02-14T17:47:53.960Z,7.40
2019-02-14T17:50:27.556Z,7.30
2019-02-14T17:53:02.254Z,7.20
2019-02-14T17:55:35.862Z,7.20
2019-02-14T17:58:09.594Z,7.20
2019-02-14T18:00:43.223Z,7.30
2019-02-14T18:03:17.735Z,7.20
2019-02-14T18:05:51.337Z,7.20
2019-02-14T18:08:24.966Z,7.20
2019-02-14T18:10:58.624Z,7.20
2019-02-14T18:13:33.307Z,7.10
2019-02-14T18:16:07.064Z,7.10
2019-02-14T18:18:40.667Z,7.00
2019-02-14T18:21:14.225Z,6.80
2019-02-14T18:23:48.813Z,6.50
2019-02-14T18:26:22.514Z,6.50
2019-02-14T18:28:56.950Z,6.40
2019-02-14T18:31:30.729Z,6.40
2019-02-14T18:34:04.506Z,6.30
2019-02-14T18:36:38.126Z,6.30
2019-02-14T18:39:12.644Z,6.20
2019-02-14T18:41:46.273Z,6.20
2019-02-14T18:44:20.063Z,6.20
2019-02-14T18:46:53.847Z,6.20
2019-02-14T18:49:27.568Z,6.20
2019-02-14T18:52:01.496Z,6.20
2019-02-14T18:54:36.027Z,6.00
2019-02-14T18:57:10.650Z,6.00
2019-02-14T18:59:50.201Z,6.00
2019-02-14T19:02:23.882Z,6.00
2019-02-14T19:04:57.588Z,6.00
2019-02-14T19:07:31.683Z,6.00
2019-02-14T19:10:04.950Z,6.00
2019-02-14T19:12:39.373Z,6.00
2019-02-14T19:15:13.026Z,6.00
2019-02-14T19:17:47.399Z,6.00
2019-02-14T19:20:21.022Z,6.00
2019-02-14T19:22:54.780Z,6.00
2019-02-14T19:25:29.646Z,5.90
2019-02-14T19:28:03.869Z,5.60
2019-02-14T19:30:38.301Z,5.60
2019-02-14T19:33:11.954Z,5.50
2019-02-14T19:35:45.724Z,5.50
2019-02-14T19:38:19.319Z,5.50
2019-02-14T19:40:52.939Z,5.50
2019-02-14T19:43:26.724Z,5.50
2019-02-14T19:46:00.491Z,5.40
2019-02-14T19:48:34.226Z,5.40
2019-02-14T19:51:08.041Z,5.40
2019-02-14T19:53:41.881Z,5.30
2019-02-14T19:56:15.500Z,5.30
2019-02-14T19:58:49.303Z,5.20
2019-02-14T20:01:24.847Z,5.10
2019-02-14T20:03:58.701Z,5.10
2019-02-14T20:06:32.431Z,5.10
2019-02-14T20:09:06.203Z,5.10
2019-02-14T20:11:39.900Z,5.00
2019-02-14T20:14:13.511Z,4.90
2019-02-14T20:16:47.367Z,4.90
2019-02-14T20:19:21.061Z,4.80
2019-02-14T20:21:54.639Z,4.70
2019-02-14T20:24:28.406Z,4.70
2019-02-14T20:27:02.156Z,4.60
2019-02-14T20:29:35.835Z,4.60
2019-02-14T20:32:09.450Z,4.70
2019-02-14T20:34:43.247Z,4.60
2019-02-14T20:37:17.705Z,4.60
2019-02-14T20:39:51.460Z,4.60
2019-02-14T20:42:25.174Z,4.60
2019-02-14T20:44:59.607Z,4.50
2019-02-14T20:47:33.169Z,4.50
2019-02-14T20:50:07.745Z,4.50
2019-02-14T20:52:41.344Z,4.50
2019-02-14T20:55:24.406Z,4.50
2019-02-14T20:57:58.173Z,4.40
2019-02-14T21:00:32.388Z,4.40
2019-02-14T21:03:06.054Z,4.40
2019-02-14T21:05:39.831Z,4.40
2019-02-14T21:08:13.451Z,4.40
2019-02-14T21:10:47.314Z,4.40
2019-02-14T21:13:21.797Z,4.40
2019-02-14T21:15:55.537Z,4.30
2019-02-14T21:18:29.266Z,4.30
2019-02-14T21:21:03.044Z,4.20
2019-02-14T21:23:37.556Z,4.10
2019-02-14T21:26:11.200Z,4.10
2019-02-14T21:28:47.345Z,4.00
2019-02-14T21:31:21.950Z,4.00
2019-02-14T21:33:56.366Z,4.10
2019-02-14T21:36:30.179Z,4.00
2019-02-14T21:39:04.028Z,4.10
2019-02-14T21:41:37.778Z,4.20
2019-02-14T21:44:12.100Z,4.20
2019-02-14T21:46:45.722Z,4.20
2019-02-14T21:49:19.324Z,4.00
2019-02-14T21:51:53.151Z,4.00
2019-02-14T21:54:26.955Z,4.00
2019-02-14T21:57:00.461Z,3.90
2019-02-14T21:59:34.049Z,3.80
2019-02-14T22:02:07.759Z,3.80
2019-02-14T22:04:41.487Z,3.80
2019-02-14T22:07:15.239Z,3.80
2019-02-14T22:09:49.637Z,3.80
2019-02-14T22:12:39.911Z,3.80
2019-02-14T22:14:59.964Z,3.70
2019-02-14T22:17:33.614Z,3.70
2019-02-14T22:20:07.302Z,3.70
2019-02-14T22:22:40.909Z,3.80
2019-02-14T22:25:14.622Z,3.80
2019-02-14T22:27:49.150Z,3.60
2019-02-14T22:30:22.873Z,3.60
2019-02-14T22:32:57.304Z,3.60
2019-02-14T22:35:31.132Z,3.50
2019-02-14T22:38:04.903Z,3.60
2019-02-14T22:40:38.475Z,3.60
2019-02-14T22:43:12.312Z,3.60
2019-02-14T22:45:45.983Z,3.60
2019-02-14T22:48:19.559Z,3.60
2019-02-14T22:50:53.354Z,3.50
2019-02-14T22:53:26.898Z,3.50
2019-02-14T22:56:00.719Z,3.40
2019-02-14T22:58:34.296Z,3.50
2019-02-14T23:01:08.148Z,3.50
2019-02-14T23:03:41.959Z,3.40
2019-02-14T23:06:15.780Z,3.30
2019-02-14T23:08:49.571Z,3.30
2019-02-14T23:11:23.393Z,3.20
2019-02-14T23:13:56.950Z,3.30
2019-02-14T23:16:30.540Z,3.20
2019-02-14T23:19:04.174Z,3.20
2019-02-14T23:21:37.772Z,3.20
2019-02-14T23:24:11.547Z,3.20
2019-02-14T23:26:46.462Z,3.10
2019-02-14T23:29:21.015Z,3.10
2019-02-14T23:31:54.725Z,3.00
2019-02-14T23:34:28.530Z,3.00
2019-02-14T23:37:02.243Z,3.10
2019-02-14T23:39:36.516Z,3.00
2019-02-14T23:42:10.129Z,3.00
2019-02-14T23:44:43.974Z,3.00
2019-02-14T23:47:17.643Z,2.90
2019-02-14T23:49:51.619Z,2.90
2019-02-14T23:52:25.487Z,2.90
2019-02-14T23:54:59.229Z,2.90
2019-02-14T23:57:32.791Z,2.90
